Time;durP1;ratioP1;P1;durP2;ratioP2;P2;SDS_P1;SDS_P2;PMS_P1;PMS_P2;Temp;Humidity;BMP_temperature;BMP_pressure;BME280_temperature;BME280_humidity;BME280_pressure;Samples;Min_cycle;Max_cycle;Signal;HPM_P1;HPM_P2
2022/10/06 00:02:22;;;;;;;5.47;0.55;;;;;;;15.52;100.00;101703.31;4998375;28;20064;-76
2022/10/06 00:04:48;;;;;;;0.98;0.90;;;;;;;15.45;100.00;101704.13;5005259;28;20057;-75
2022/10/06 00:07:16;;;;;;;4.40;0.95;;;;;;;15.51;100.00;101713.66;5002064;28;20057;-77
2022/10/06 00:09:42;;;;;;;4.55;0.80;;;;;;;15.55;100.00;101727.59;5003976;28;20080;-76
2022/10/06 00:12:09;;;;;;;2.45;0.50;;;;;;;15.52;100.00;101720.81;5001232;28;20049;-75
2022/10/06 00:14:36;;;;;;;7.75;1.45;;;;;;;15.61;100.00;101723.16;4999605;28;20062;-75
2022/10/06 00:17:03;;;;;;;3.50;1.10;;;;;;;15.49;100.00;101732.78;5006439;28;20045;-74
2022/10/06 00:19:30;;;;;;;4.03;0.82;;;;;;;15.57;100.00;101741.91;5002957;28;20462;-75
2022/10/06 00:21:57;;;;;;;9.25;2.10;;;;;;;15.60;100.00;101741.91;5001321;28;20057;-75
2022/10/06 00:24:23;;;;;;;1.38;0.60;;;;;;;15.55;100.00;101745.13;5007149;28;20056;-76
2022/10/06 00:26:50;;;;;;;5.38;0.40;;;;;;;15.59;100.00;101753.47;5009912;28;20045;-75
2022/10/06 00:29:17;;;;;;;9.15;1.55;;;;;;;15.63;100.00;101738.31;5004380;28;20084;-75
2022/10/06 00:31:44;;;;;;;2.78;0.85;;;;;;;15.62;100.00;101747.88;5001146;28;20084;-75
2022/10/06 00:34:10;;;;;;;4.07;1.08;;;;;;;15.55;100.00;101764.63;5007058;28;20053;-75
2022/10/06 00:36:36;;;;;;;4.32;1.17;;;;;;;15.59;100.00;101762.63;5004155;28;20046;-75
2022/10/06 00:39:03;;;;;;;2.10;0.90;;;;;;;15.52;100.00;101765.44;5004712;28;20059;-75
2022/10/06 00:41:30;;;;;;;1.65;0.85;;;;;;;15.59;100.00;101775.78;5008429;28;20060;-75
2022/10/06 00:43:57;;;;;;;4.32;1.20;;;;;;;15.45;100.00;101765.47;5008589;28;20061;-75
2022/10/06 00:46:39;;;;;;;1.70;0.95;;;;;;;15.48;100.00;101775.84;5005936;28;20049;-75
2022/10/06 00:49:24;;;;;;;6.00;1.45;;;;;;;15.50;100.00;101785.38;5004755;28;20139;-76
2022/10/06 00:51:56;;;;;;;13.73;1.33;;;;;;;15.38;100.00;101788.63;4999834;28;20141;-75
2022/10/06 00:54:24;;;;;;;2.17;0.77;;;;;;;15.34;100.00;101796.19;5006452;28;20886;-75
2022/10/06 00:56:51;;;;;;;1.30;0.68;;;;;;;15.26;100.00;101796.63;5006479;28;20795;-75
2022/10/06 00:59:17;;;;;;;5.78;0.90;;;;;;;15.27;100.00;101801.78;5002680;28;20062;-75
2022/10/06 01:02:21;;;;;;;9.52;1.52;;;;;;;15.20;100.00;101807.38;5003752;28;20918;-75
2022/10/06 01:04:54;;;;;;;2.78;0.95;;;;;;;15.20;100.00;101812.16;5001487;28;20061;-76
2022/10/06 01:07:23;;;;;;;1.17;0.57;;;;;;;15.13;100.00;101804.59;5000255;28;20821;-75
2022/10/06 01:09:49;;;;;;;9.15;1.42;;;;;;;15.19;100.00;101808.56;5005987;28;20111;-75
2022/10/06 01:12:16;;;;;;;2.95;1.23;;;;;;;15.09;100.00;101808.63;5004211;28;20681;-76
2022/10/06 01:14:42;;;;;;;11.45;1.75;;;;;;;15.20;100.00;101812.97;5007211;28;20049;-75
2022/10/06 01:17:23;;;;;;;9.55;1.88;;;;;;;15.15;100.00;101824.50;5003697;28;20060;-75
2022/10/06 01:20:00;;;;;;;3.95;1.08;;;;;;;15.14;100.00;101819.34;5003487;28;20053;-75
2022/10/06 01:22:40;;;;;;;5.03;1.63;;;;;;;15.18;100.00;101823.72;5000609;28;21037;-75
2022/10/06 01:25:08;;;;;;;12.07;1.67;;;;;;;15.16;100.00;101822.53;4999232;28;20049;-76
2022/10/06 01:27:37;;;;;;;9.30;2.10;;;;;;;15.13;100.00;101829.69;5002259;28;20046;-74
2022/10/06 01:30:07;;;;;;;2.05;0.50;;;;;;;15.07;100.00;101836.09;5001928;28;20766;-76
2022/10/06 01:32:37;;;;;;;6.93;2.25;;;;;;;15.05;100.00;101836.47;5007085;28;20053;-76
2022/10/06 01:35:05;;;;;;;9.38;1.48;;;;;;;15.06;100.00;101842.88;5010651;28;20053;-74
2022/10/06 01:37:32;;;;;;;6.75;1.80;;;;;;;15.04;100.00;101848.03;5003461;28;20050;-75
2022/10/06 01:39:58;;;;;;;0.20;0.20;;;;;;;14.97;100.00;101857.22;5010311;28;20053;-75
2022/10/06 01:42:25;;;;;;;12.63;2.35;;;;;;;15.09;100.00;101859.56;5009618;28;20052;-75
2022/10/06 01:44:51;;;;;;;6.97;1.70;;;;;;;15.07;100.00;101861.16;5010862;28;20053;-75
2022/10/06 01:47:18;;;;;;;2.00;0.50;;;;;;;15.04;100.00;101859.19;5008875;28;20060;-75
2022/10/06 01:49:44;;;;;;;10.45;1.55;;;;;;;15.06;100.00;101865.94;5007839;28;20804;-75
2022/10/06 01:52:10;;;;;;;1.77;0.80;;;;;;;14.96;100.00;101872.31;5004978;28;20053;-75
2022/10/06 01:54:37;;;;;;;11.65;2.22;;;;;;;15.07;100.00;101867.56;4998736;28;20055;-75
2022/10/06 01:57:05;;;;;;;6.60;1.23;;;;;;;14.92;100.00;101865.19;5003924;28;20846;-75
2022/10/06 01:59:31;;;;;;;4.32;0.73;;;;;;;14.89;100.00;101868.75;5011730;28;20068;-74
2022/10/06 02:01:58;;;;;;;13.23;1.70;;;;;;;14.93;100.00;101875.94;5029546;28;20682;-74
2022/10/06 02:04:24;;;;;;;9.27;1.60;;;;;;;14.91;100.00;101875.53;5029494;28;20049;-74
2022/10/06 02:06:54;;;;;;;11.10;1.80;;;;;;;14.92;100.00;101882.69;5028640;28;20052;-74
2022/10/06 02:09:21;;;;;;;12.50;1.85;;;;;;;14.93;100.00;101897.41;5030425;28;20095;-74
2022/10/06 02:11:48;;;;;;;4.72;1.17;;;;;;;14.83;100.00;101893.44;5029515;28;20053;-73
2022/10/06 02:14:16;;;;;;;10.43;1.50;;;;;;;14.87;100.00;101890.66;5030317;28;20057;-73
2022/10/06 02:16:43;;;;;;;9.38;1.65;;;;;;;14.82;100.00;101893.84;5029885;28;20096;-74
2022/10/06 02:19:10;;;;;;;6.60;1.80;;;;;;;14.76;100.00;101898.22;5030511;28;20048;-74
2022/10/06 02:21:37;;;;;;;7.88;1.60;;;;;;;14.83;100.00;101912.16;5028234;28;20446;-74
2022/10/06 02:24:04;;;;;;;11.52;1.67;;;;;;;14.82;100.00;101922.47;5029684;28;20715;-73
2022/10/06 02:26:31;;;;;;;6.75;1.20;;;;;;;14.81;100.00;101920.91;5028314;28;20552;-74
2022/10/06 02:28:57;;;;;;;13.90;2.15;;;;;;;14.88;100.00;101923.69;5029638;28;20049;-74
2022/10/06 02:31:24;;;;;;;14.90;2.15;;;;;;;14.84;100.00;101924.88;5029173;28;20049;-75
2022/10/06 02:33:50;;;;;;;6.57;1.70;;;;;;;14.85;100.00;101924.47;5030199;28;20045;-76
2022/10/06 02:36:17;;;;;;;13.50;1.75;;;;;;;14.76;100.00;101932.44;5027358;28;20692;-73
2022/10/06 02:38:43;;;;;;;16.85;2.35;;;;;;;14.85;100.00;101937.63;5029757;28;20046;-76
2022/10/06 02:41:10;;;;;;;17.75;2.60;;;;;;;14.81;100.00;101954.34;5027860;28;20057;-76
2022/10/06 02:43:36;;;;;;;13.82;2.17;;;;;;;14.78;100.00;101943.97;5029412;28;20068;-74
2022/10/06 02:46:10;;;;;;;14.73;1.60;;;;;;;14.81;100.00;101959.09;5030016;28;20457;-73
2022/10/06 02:48:39;;;;;;;13.30;2.95;;;;;;;14.84;100.00;101953.56;5028362;28;20076;-76
2022/10/06 02:51:11;;;;;;;3.78;1.27;;;;;;;14.70;100.00;101961.88;5025238;28;20053;-75
2022/10/06 02:53:38;;;;;;;9.75;1.75;;;;;;;14.78;100.00;101966.28;5029266;28;20049;-75
2022/10/06 02:56:07;;;;;;;13.88;1.95;;;;;;;14.74;100.00;101965.47;5029647;28;20049;-75
2022/10/06 02:58:33;;;;;;;1.20;1.05;;;;;;;14.64;100.00;101962.66;5029806;28;20476;-74
2022/10/06 03:01:04;;;;;;;14.00;2.55;;;;;;;14.73;100.00;101966.69;5029379;28;20049;-73
2022/10/06 03:03:33;;;;;;;7.90;1.48;;;;;;;14.71;100.00;101980.19;5029544;28;20054;-75
2022/10/06 03:06:04;;;;;;;12.15;3.05;;;;;;;14.74;100.00;101982.19;5029667;28;20080;-73
2022/10/06 03:08:31;;;;;;;15.70;2.05;;;;;;;14.71;100.00;101984.97;5029126;28;20045;-74
2022/10/06 03:11:00;;;;;;;9.38;1.85;;;;;;;14.70;100.00;101991.72;5025959;28;20465;-72
2022/10/06 03:13:26;;;;;;;8.90;1.73;;;;;;;14.63;100.00;101994.50;5028441;28;20119;-75
2022/10/06 03:15:53;;;;;;;11.90;1.83;;;;;;;14.68;100.00;102006.06;5029465;28;20107;-75
2022/10/06 03:18:20;;;;;;;12.68;3.03;;;;;;;14.64;100.00;102004.44;5029443;28;20080;-75
2022/10/06 03:20:47;;;;;;;3.17;0.82;;;;;;;14.51;100.00;102014.38;5027546;28;20107;-75
2022/10/06 03:23:14;;;;;;;1.17;1.02;;;;;;;14.51;100.00;102014.38;5028702;28;20134;-75
2022/10/06 03:25:40;;;;;;;7.90;1.60;;;;;;;14.53;100.00;102018.34;5029440;28;20045;-75
2022/10/06 03:28:06;;;;;;;11.13;2.15;;;;;;;14.58;100.00;102019.97;5028345;28;20498;-75
2022/10/06 03:30:33;;;;;;;15.23;2.17;;;;;;;14.56;100.00;102019.56;5029297;28;20483;-75
2022/10/06 03:33:00;;;;;;;13.57;2.67;;;;;;;14.56;100.00;102020.38;5028384;28;20046;-75
2022/10/06 03:35:27;;;;;;;10.82;1.58;;;;;;;14.49;100.00;102034.25;5027907;28;20049;-74
2022/10/06 03:37:53;;;;;;;7.60;1.48;;;;;;;14.36;100.00;102032.22;5028491;28;20441;-75
2022/10/06 03:40:19;;;;;;;12.20;2.08;;;;;;;14.39;100.00;102035.03;5028261;28;20052;-75
2022/10/06 03:42:46;;;;;;;11.38;2.22;;;;;;;14.42;100.00;102045.38;5026376;28;20111;-74
2022/10/06 03:45:12;;;;;;;16.38;2.63;;;;;;;14.45;100.00;102052.16;5029168;28;20045;-74
2022/10/06 03:47:39;;;;;;;10.13;1.75;;;;;;;14.42;100.00;102062.09;5025498;28;20042;-74
2022/10/06 03:50:06;;;;;;;16.27;2.75;;;;;;;14.41;100.00;102054.91;5026621;28;20096;-74
2022/10/06 03:52:33;;;;;;;11.52;2.13;;;;;;;14.43;100.00;102063.69;5028115;28;20048;-75
2022/10/06 03:54:59;;;;;;;10.80;2.58;;;;;;;14.29;100.00;102066.41;5026916;28;20041;-74
2022/10/06 03:57:25;;;;;;;11.82;1.80;;;;;;;14.26;100.00;102063.56;5027511;28;20045;-74
2022/10/06 03:59:52;;;;;;;10.27;1.70;;;;;;;14.25;100.00;102076.72;5028304;28;20037;-74
2022/10/06 04:02:18;;;;;;;12.23;1.75;;;;;;;14.21;100.00;102078.63;5027468;28;20053;-74
2022/10/06 04:04:45;;;;;;;4.90;0.88;;;;;;;14.22;100.00;102090.56;5028604;28;20073;-74
2022/10/06 04:07:11;;;;;;;6.20;1.45;;;;;;;14.23;100.00;102083.84;5026235;28;20095;-74
2022/10/06 04:09:37;;;;;;;12.32;2.30;;;;;;;14.28;100.00;102084.25;5028136;28;20046;-74
2022/10/06 04:12:04;;;;;;;13.05;2.53;;;;;;;14.20;100.00;102095.72;5027554;28;20053;-74
2022/10/06 04:14:30;;;;;;;15.15;2.45;;;;;;;14.21;100.00;102098.13;5027901;28;20448;-75
2022/10/06 04:16:57;;;;;;;10.70;1.50;;;;;;;14.15;100.00;102102.47;5028115;28;20066;-75
2022/10/06 04:19:24;;;;;;;11.52;1.95;;;;;;;14.17;100.00;102107.66;5028371;28;20041;-74
2022/10/06 04:21:50;;;;;;;12.73;1.60;;;;;;;14.15;100.00;102110.81;5025822;28;20091;-75
2022/10/06 04:24:17;;;;;;;13.50;1.80;;;;;;;14.05;100.00;102116.31;5028176;28;20065;-74
2022/10/06 04:26:45;;;;;;;13.55;1.95;;;;;;;14.00;100.00;102109.13;5027445;28;20046;-74
2022/10/06 04:29:12;;;;;;;18.15;2.63;;;;;;;13.99;100.00;102113.09;5025399;28;20518;-74
2022/10/06 04:31:41;;;;;;;15.25;2.38;;;;;;;14.03;100.00;102124.25;5026965;28;20056;-75
2022/10/06 04:34:09;;;;;;;16.55;2.75;;;;;;;13.99;100.00;102132.56;5024123;28;20116;-74
2022/10/06 04:36:39;;;;;;;11.93;2.25;;;;;;;13.95;100.00;102136.50;5023417;28;20763;-74
2022/10/06 04:39:09;;;;;;;10.18;1.60;;;;;;;13.84;100.00;102132.84;5026630;28;20576;-76
2022/10/06 04:41:37;;;;;;;4.30;1.23;;;;;;;13.85;100.00;102140.00;5027109;28;20103;-75
2022/10/06 04:44:05;;;;;;;12.05;1.95;;;;;;;13.88;100.00;102142.84;5028062;28;20053;-75
2022/10/06 04:46:33;;;;;;;13.93;2.15;;;;;;;13.80;100.00;102146.72;5020508;28;20037;-74
2022/10/06 04:49:10;;;;;;;13.90;2.05;;;;;;;13.90;100.00;102148.03;5023298;28;20616;-75
2022/10/06 04:51:45;;;;;;;17.77;2.50;;;;;;;13.86;100.00;102152.72;5023151;28;20061;-75
2022/10/06 04:54:11;;;;;;;4.55;1.40;;;;;;;13.82;100.00;102163.03;5024570;28;20759;-74
2022/10/06 04:56:38;;;;;;;13.15;3.15;;;;;;;13.87;100.00;102166.25;5022849;28;20034;-75
2022/10/06 04:59:04;;;;;;;11.95;1.73;;;;;;;13.83;100.00;102170.19;5020867;28;20045;-73
2022/10/06 05:01:33;;;;;;;9.88;1.90;;;;;;;13.78;100.00;102173.34;5025901;28;20131;-75
2022/10/06 05:04:01;;;;;;;15.65;2.05;;;;;;;13.77;100.00;102175.31;5026431;28;20056;-75
2022/10/06 05:06:33;;;;;;;7.32;1.48;;;;;;;13.74;100.00;102178.84;5027424;28;20105;-73
2022/10/06 05:09:03;;;;;;;12.15;2.10;;;;;;;13.79;100.00;102189.66;5025635;28;20045;-74
2022/10/06 05:11:30;;;;;;;4.28;1.05;;;;;;;13.69;100.00;102189.53;5026309;28;20498;-74
2022/10/06 05:13:58;;;;;;;8.73;2.33;;;;;;;13.66;100.00;102179.19;5028217;28;20079;-75
2022/10/06 05:16:27;;;;;;;9.18;2.35;;;;;;;13.67;100.00;102203.81;5025095;28;20053;-75
2022/10/06 05:18:53;;;;;;;11.68;2.08;;;;;;;13.74;100.00;102201.13;5027098;28;20041;-75
2022/10/06 05:21:23;;;;;;;18.60;3.42;;;;;;;13.71;100.00;102209.44;5026476;28;20050;-75
2022/10/06 05:23:49;;;;;;;16.25;2.85;;;;;;;13.68;100.00;102215.75;5026790;28;20045;-74
2022/10/06 05:26:19;;;;;;;5.05;1.15;;;;;;;13.59;100.00;102224.41;5024448;28;20479;-75
2022/10/06 05:28:46;;;;;;;0.82;0.50;;;;;;;13.50;100.00;102214.78;5030407;28;20037;-74
2022/10/06 05:31:19;;;;;;;12.40;1.85;;;;;;;13.43;100.00;102223.84;5031013;28;20049;-74
2022/10/06 05:33:46;;;;;;;14.77;2.10;;;;;;;13.48;100.00;102231.84;5024858;28;20100;-74
2022/10/06 05:36:18;;;;;;;13.18;2.85;;;;;;;13.44;100.00;102233.00;5030624;28;20486;-74
2022/10/06 05:38:45;;;;;;;17.85;2.28;;;;;;;13.43;100.00;102240.53;5027303;28;20049;-78
2022/10/06 05:41:15;;;;;;;7.57;1.25;;;;;;;13.32;100.00;102244.34;5026748;28;20647;-76
2022/10/06 05:43:42;;;;;;;14.98;3.15;;;;;;;13.40;100.00;102246.06;5025564;28;20045;-77
2022/10/06 05:46:16;;;;;;;17.75;2.22;;;;;;;13.30;100.00;102238.41;5024203;28;20052;-77
2022/10/06 05:48:46;;;;;;;14.53;2.47;;;;;;;13.30;100.00;102246.72;5024738;28;20077;-77
2022/10/06 05:51:13;;;;;;;3.53;1.80;;;;;;;13.30;100.00;102250.31;5026327;28;20494;-75
2022/10/06 05:53:40;;;;;;;4.00;1.73;;;;;;;13.28;100.00;102260.19;5025989;28;20052;-74
2022/10/06 05:56:25;;;;;;;8.68;2.20;;;;;;;13.29;100.00;102272.94;5027473;28;20045;-74
2022/10/06 05:58:53;;;;;;;12.45;1.85;;;;;;;13.27;100.00;102276.09;5022545;28;20045;-75
2022/10/06 06:01:30;;;;;;;12.02;2.42;;;;;;;13.29;100.00;102278.50;5026763;28;20125;-75
2022/10/06 06:04:00;;;;;;;8.25;1.98;;;;;;;13.22;100.00;102279.19;5031877;28;20041;-75
2022/10/06 06:06:33;;;;;;;8.55;1.88;;;;;;;13.19;100.00;102299.41;5027975;28;20060;-75
2022/10/06 06:09:03;;;;;;;3.67;1.77;;;;;;;13.17;100.00;102284.28;5025842;28;20045;-75
2022/10/06 06:11:30;;;;;;;9.68;2.45;;;;;;;13.20;100.00;102286.31;5031879;28;20065;-75
2022/10/06 06:13:57;;;;;;;9.57;1.67;;;;;;;13.21;100.00;102299.03;5024249;28;20375;-75
2022/10/06 06:16:25;;;;;;;12.85;2.25;;;;;;;13.24;100.00;102296.31;5029086;28;20432;-75
2022/10/06 06:18:51;;;;;;;5.88;2.05;;;;;;;13.20;100.00;102301.03;5027550;28;20544;-75
2022/10/06 06:21:18;;;;;;;15.85;2.95;;;;;;;13.25;100.00;102309.03;5027662;28;20045;-76
2022/10/06 06:23:47;;;;;;;6.25;2.22;;;;;;;13.22;100.00;102300.66;5022442;28;20049;-72
2022/10/06 06:26:16;;;;;;;6.38;1.77;;;;;;;13.19;100.00;102313.31;5029737;28;20107;-72
2022/10/06 21:56:09;;;;;;;28.92;14.05;;;;;;;11.39;100.00;102518.41;5075080;28;20502;-77
2022/10/06 21:58:35;;;;;;;23.02;11.63;;;;;;;11.31;100.00;102513.84;4989899;28;2031290;-77
2022/10/06 22:01:06;;;;;;;24.45;11.32;;;;;;;11.33;100.00;102514.28;5041951;28;20041;-76
2022/10/06 22:03:37;;;;;;;20.58;9.25;;;;;;;11.25;100.00;102510.56;5039160;28;20048;-76
2022/10/06 22:06:06;;;;;;;22.33;8.77;;;;;;;11.28;100.00;102511.78;5046151;28;20053;-76
2022/10/06 22:08:34;;;;;;;20.40;7.65;;;;;;;11.29;100.00;102508.66;5050343;28;20060;-77
2022/10/06 22:11:06;;;;;;;19.15;8.13;;;;;;;11.30;100.00;102503.94;5041313;28;20052;-76
2022/10/06 22:13:32;;;;;;;21.02;7.28;;;;;;;11.24;100.00;102502.59;5046369;28;20049;-76
2022/10/06 22:16:02;;;;;;;20.17;7.22;;;;;;;11.21;100.00;102503.31;5043717;28;20505;-76
2022/10/06 22:18:33;;;;;;;19.13;7.30;;;;;;;11.12;100.00;102495.19;5043022;28;20084;-75
2022/10/06 22:21:00;;;;;;;17.35;6.05;;;;;;;11.10;100.00;102499.47;5042363;28;20049;-76
2022/10/06 22:23:26;;;;;;;21.42;6.47;;;;;;;11.02;100.00;102490.19;5049496;28;20049;-77
2022/10/06 22:25:56;;;;;;;20.67;7.70;;;;;;;10.99;100.00;102492.84;5047825;28;20045;-76
2022/10/06 22:28:24;;;;;;;20.58;9.48;;;;;;;10.97;100.00;102489.66;5043521;28;20045;-76
2022/10/06 22:31:10;;;;;;;26.85;10.55;;;;;;;10.97;100.00;102487.66;5042448;28;20057;-76
2022/10/06 22:33:38;;;;;;;27.20;12.60;;;;;;;10.93;100.00;102477.69;5042719;28;20053;-76
2022/10/06 22:36:06;;;;;;;28.38;10.57;;;;;;;10.95;100.00;102480.88;5040473;28;20554;-75
2022/10/06 22:38:33;;;;;;;32.47;14.88;;;;;;;10.97;100.00;102490.44;5047367;28;20079;-76
2022/10/06 22:41:01;;;;;;;24.80;12.20;;;;;;;10.93;100.00;102484.00;5041278;28;20044;-76
2022/10/06 22:43:28;;;;;;;23.75;11.35;;;;;;;10.89;100.00;102474.00;5045839;28;20501;-77
2022/10/06 22:45:55;;;;;;;20.85;9.90;;;;;;;10.88;100.00;102473.22;5049221;28;20057;-75
2022/10/06 22:48:22;;;;;;;26.05;9.73;;;;;;;10.86;100.00;102466.44;5048226;28;20049;-76
2022/10/06 22:50:49;;;;;;;22.27;8.50;;;;;;;10.83;100.00;102464.38;5049064;28;20049;-76
2022/10/06 22:53:20;;;;;;;20.40;8.75;;;;;;;10.79;100.00;102466.22;5048915;28;20052;-77
2022/10/06 22:55:46;;;;;;;22.20;8.90;;;;;;;10.77;100.00;102458.28;5049734;28;20053;-76
2022/10/06 22:58:14;;;;;;;20.30;8.45;;;;;;;10.72;100.00;102455.78;5049198;28;20052;-77
2022/10/06 23:00:41;;;;;;;20.42;7.70;;;;;;;10.68;100.00;102454.88;5047344;28;20049;-76
2022/10/06 23:03:08;;;;;;;21.25;9.23;;;;;;;10.59;100.00;102447.94;5049376;28;20110;-75
2022/10/06 23:05:35;;;;;;;19.65;8.52;;;;;;;10.51;100.00;102444.16;5048905;28;20587;-76
2022/10/06 23:08:03;;;;;;;24.83;8.05;;;;;;;10.44;100.00;102441.97;5049141;28;20717;-77
2022/10/06 23:10:32;;;;;;;22.48;7.20;;;;;;;10.43;100.00;102443.16;5041196;28;20053;-75
2022/10/06 23:12:59;;;;;;;20.83;6.25;;;;;;;10.43;100.00;102442.38;5026171;28;20531;-77
2022/10/06 23:15:26;;;;;;;19.65;6.35;;;;;;;10.43;100.00;102445.13;5030356;28;20068;-77
2022/10/06 23:17:53;;;;;;;16.70;5.90;;;;;;;10.43;100.00;102443.16;5033069;28;20052;-77
2022/10/06 23:20:20;;;;;;;19.60;7.15;;;;;;;10.43;100.00;102439.59;5023324;28;20048;-79
2022/10/06 23:22:46;;;;;;;26.15;6.78;;;;;;;10.36;100.00;102434.66;5026721;28;20056;-78
2022/10/06 23:25:13;;;;;;;17.42;6.47;;;;;;;10.25;100.00;102433.59;5025786;28;20777;-78
2022/10/06 23:27:39;;;;;;;18.40;6.10;;;;;;;10.25;100.00;102436.34;5024597;28;20052;-78
2022/10/06 23:30:07;;;;;;;17.08;6.80;;;;;;;10.22;100.00;102431.50;5023954;28;20134;-78
2022/10/06 23:32:33;;;;;;;18.27;6.93;;;;;;;10.24;100.00;102429.22;5023980;28;20045;-79
2022/10/06 23:34:59;;;;;;;20.58;7.03;;;;;;;10.27;100.00;102424.94;5021253;28;20053;-77
2022/10/06 23:37:27;;;;;;;20.98;7.95;;;;;;;10.22;100.00;102425.97;5027958;28;20040;-77
2022/10/06 23:39:53;;;;;;;21.42;7.40;;;;;;;10.13;100.00;102421.78;5032426;28;20060;-78
2022/10/06 23:42:20;;;;;;;19.15;7.57;;;;;;;10.10;100.00;102420.50;5036928;28;20059;-77
2022/10/06 23:44:46;;;;;;;24.38;7.38;;;;;;;10.07;100.00;102418.47;5038691;28;20130;-79
2022/10/06 23:47:12;;;;;;;18.30;6.60;;;;;;;10.05;100.00;102417.97;5034128;28;20884;-77
2022/10/06 23:49:42;;;;;;;20.00;7.28;;;;;;;10.05;100.00;102420.75;5031561;28;20049;-78
2022/10/06 23:52:08;;;;;;;26.17;7.15;;;;;;;10.04;100.00;102421.91;5029712;28;20064;-79
2022/10/06 23:54:35;;;;;;;24.05;6.65;;;;;;;10.07;100.00;102412.94;5025682;28;20135;-77
2022/10/06 23:57:01;;;;;;;18.55;6.07;;;;;;;10.03;100.00;102403.69;5023872;28;20102;-78
2022/10/06 23:59:28;;;;;;;20.02;5.95;;;;;;;10.04;100.00;102410.84;5028109;28;20057;-77
